Pelican Bay, Texas
Current Conditions -  °F | °C
As of 3:52 AM on Friday 24 Oct 2014 (Local Time) from KNFW Reporting Station
Clear Clear  
Wind Chill: 69°   Ceiling: Unl
Heat Index: 69°   Visibility: 10mi
Dew Point: 54°   Wind: 5mph
Humidity: 58%   Direction: 160°SSE
Pressure: 30.14"   Gusts: NA
Location:  32.912°N, 97.556°W
Report Text: KNFW 240852Z AUTO 16004KT 10SM CLR 21/12 A3014 RMK AO2 SLP190 T02060122 58002 CHINO N VISNO N $
Loading
Personal Weather Stations






























Interactive Weather Map
Tropical Storm Tracking
New forecast layout! Learn more

10-Day Weather Forecast

Advertisements
Track Severe Weather on mobile